sensor_id;sensor_type;location;lat;lon;timestamp;temperature;humidity
39023;DHT22;25908;51.984;5.928;2022-08-07T00:01:19;17.60;72.10
39023;DHT22;25908;51.984;5.928;2022-08-07T00:03:45;17.60;72.30
39023;DHT22;25908;51.984;5.928;2022-08-07T00:06:12;17.60;72.50
39023;DHT22;25908;51.984;5.928;2022-08-07T00:08:38;17.50;72.70
39023;DHT22;25908;51.984;5.928;2022-08-07T00:11:04;17.50;72.80
39023;DHT22;25908;51.984;5.928;2022-08-07T00:13:30;17.50;73.10
39023;DHT22;25908;51.984;5.928;2022-08-07T00:15:55;17.40;73.20
39023;DHT22;25908;51.984;5.928;2022-08-07T00:18:25;17.40;73.30
39023;DHT22;25908;51.984;5.928;2022-08-07T00:20:59;17.40;73.70
39023;DHT22;25908;51.984;5.928;2022-08-07T00:23:25;17.30;73.50
39023;DHT22;25908;51.984;5.928;2022-08-07T00:25:51;17.30;73.50
39023;DHT22;25908;51.984;5.928;2022-08-07T00:28:17;17.30;73.80
39023;DHT22;25908;51.984;5.928;2022-08-07T00:30:43;17.30;73.90
39023;DHT22;25908;51.984;5.928;2022-08-07T00:33:08;17.20;74.00
39023;DHT22;25908;51.984;5.928;2022-08-07T00:35:34;17.20;74.00
39023;DHT22;25908;51.984;5.928;2022-08-07T00:38:00;17.20;74.10
39023;DHT22;25908;51.984;5.928;2022-08-07T00:40:27;17.10;74.20
39023;DHT22;25908;51.984;5.928;2022-08-07T00:42:52;17.10;74.30
39023;DHT22;25908;51.984;5.928;2022-08-07T00:45:18;17.10;74.40
39023;DHT22;25908;51.984;5.928;2022-08-07T00:47:45;17.10;74.60
39023;DHT22;25908;51.984;5.928;2022-08-07T00:50:11;17.10;74.60
39023;DHT22;25908;51.984;5.928;2022-08-07T00:52:36;17.00;74.60
39023;DHT22;25908;51.984;5.928;2022-08-07T00:55:03;17.00;74.50
39023;DHT22;25908;51.984;5.928;2022-08-07T00:57:29;17.00;74.70
39023;DHT22;25908;51.984;5.928;2022-08-07T00:59:55;17.00;74.80
39023;DHT22;25908;51.984;5.928;2022-08-07T01:02:22;17.00;75.00
39023;DHT22;25908;51.984;5.928;2022-08-07T01:04:48;17.00;74.90
39023;DHT22;25908;51.984;5.928;2022-08-07T01:07:14;17.00;74.90
39023;DHT22;25908;51.984;5.928;2022-08-07T01:09:39;17.00;75.00
39023;DHT22;25908;51.984;5.928;2022-08-07T01:12:05;16.90;75.20
39023;DHT22;25908;51.984;5.928;2022-08-07T01:14:31;16.90;75.40
39023;DHT22;25908;51.984;5.928;2022-08-07T01:16:57;16.90;75.50
39023;DHT22;25908;51.984;5.928;2022-08-07T01:19:23;16.90;75.50
39023;DHT22;25908;51.984;5.928;2022-08-07T01:21:51;16.90;75.60
39023;DHT22;25908;51.984;5.928;2022-08-07T01:24:17;16.90;75.60
39023;DHT22;25908;51.984;5.928;2022-08-07T01:26:43;16.80;75.60
39023;DHT22;25908;51.984;5.928;2022-08-07T01:29:09;16.80;75.80
39023;DHT22;25908;51.984;5.928;2022-08-07T01:31:38;16.80;75.80
39023;DHT22;25908;51.984;5.928;2022-08-07T01:34:04;16.80;76.00
39023;DHT22;25908;51.984;5.928;2022-08-07T01:36:30;16.80;76.20
39023;DHT22;25908;51.984;5.928;2022-08-07T01:38:57;16.70;76.40
39023;DHT22;25908;51.984;5.928;2022-08-07T01:41:23;16.70;76.70
39023;DHT22;25908;51.984;5.928;2022-08-07T01:43:49;16.70;76.40
39023;DHT22;25908;51.984;5.928;2022-08-07T01:46:15;16.70;76.30
39023;DHT22;25908;51.984;5.928;2022-08-07T01:48:42;16.60;76.50
39023;DHT22;25908;51.984;5.928;2022-08-07T01:51:11;16.60;76.40
39023;DHT22;25908;51.984;5.928;2022-08-07T01:53:40;16.60;76.40
39023;DHT22;25908;51.984;5.928;2022-08-07T01:56:15;16.60;76.60
39023;DHT22;25908;51.984;5.928;2022-08-07T01:58:47;16.60;76.50
39023;DHT22;25908;51.984;5.928;2022-08-07T02:01:19;16.60;76.60
39023;DHT22;25908;51.984;5.928;2022-08-07T02:03:50;16.60;76.70
39023;DHT22;25908;51.984;5.928;2022-08-07T02:06:17;16.50;76.90
39023;DHT22;25908;51.984;5.928;2022-08-07T02:08:45;16.50;76.90
39023;DHT22;25908;51.984;5.928;2022-08-07T02:11:11;16.50;77.10
39023;DHT22;25908;51.984;5.928;2022-08-07T02:13:38;16.50;77.10
39023;DHT22;25908;51.984;5.928;2022-08-07T02:16:05;16.50;77.20
39023;DHT22;25908;51.984;5.928;2022-08-07T02:18:34;16.40;77.70
39023;DHT22;25908;51.984;5.928;2022-08-07T02:21:02;16.40;77.50
39023;DHT22;25908;51.984;5.928;2022-08-07T02:23:29;16.40;77.70
39023;DHT22;25908;51.984;5.928;2022-08-07T02:25:57;16.40;77.90
39023;DHT22;25908;51.984;5.928;2022-08-07T02:28:26;16.40;77.80
39023;DHT22;25908;51.984;5.928;2022-08-07T02:30:53;16.30;77.90
39023;DHT22;25908;51.984;5.928;2022-08-07T02:33:23;16.30;78.20
39023;DHT22;25908;51.984;5.928;2022-08-07T02:35:50;16.30;78.60
39023;DHT22;25908;51.984;5.928;2022-08-07T02:38:18;16.30;78.60
39023;DHT22;25908;51.984;5.928;2022-08-07T02:40:45;16.20;78.60
39023;DHT22;25908;51.984;5.928;2022-08-07T02:43:11;16.30;78.90
39023;DHT22;25908;51.984;5.928;2022-08-07T02:45:39;16.30;79.00
39023;DHT22;25908;51.984;5.928;2022-08-07T02:48:07;16.20;79.00
39023;DHT22;25908;51.984;5.928;2022-08-07T02:50:34;16.20;79.30
39023;DHT22;25908;51.984;5.928;2022-08-07T02:53:30;16.10;79.30
39023;DHT22;25908;51.984;5.928;2022-08-07T02:55:58;16.10;79.50
39023;DHT22;25908;51.984;5.928;2022-08-07T02:58:26;16.10;79.60
39023;DHT22;25908;51.984;5.928;2022-08-07T03:00:54;16.10;79.40
39023;DHT22;25908;51.984;5.928;2022-08-07T03:03:22;16.10;79.70
39023;DHT22;25908;51.984;5.928;2022-08-07T03:05:51;16.10;79.80
39023;DHT22;25908;51.984;5.928;2022-08-07T03:08:17;16.00;79.70
39023;DHT22;25908;51.984;5.928;2022-08-07T03:10:45;16.00;79.60
39023;DHT22;25908;51.984;5.928;2022-08-07T03:13:11;16.00;79.90
39023;DHT22;25908;51.984;5.928;2022-08-07T03:15:37;16.00;80.10
39023;DHT22;25908;51.984;5.928;2022-08-07T03:18:03;15.90;80.40
39023;DHT22;25908;51.984;5.928;2022-08-07T03:20:30;15.90;80.80
39023;DHT22;25908;51.984;5.928;2022-08-07T03:22:57;15.90;80.80
39023;DHT22;25908;51.984;5.928;2022-08-07T03:25:24;15.90;81.10
39023;DHT22;25908;51.984;5.928;2022-08-07T03:27:51;15.90;81.40
39023;DHT22;25908;51.984;5.928;2022-08-07T03:30:18;15.80;81.10
39023;DHT22;25908;51.984;5.928;2022-08-07T03:32:46;15.80;81.20
39023;DHT22;25908;51.984;5.928;2022-08-07T03:35:16;15.80;80.90
39023;DHT22;25908;51.984;5.928;2022-08-07T03:37:43;15.80;81.00
39023;DHT22;25908;51.984;5.928;2022-08-07T03:40:10;15.80;80.90
39023;DHT22;25908;51.984;5.928;2022-08-07T03:42:36;15.70;80.80
39023;DHT22;25908;51.984;5.928;2022-08-07T03:45:03;15.70;80.90
39023;DHT22;25908;51.984;5.928;2022-08-07T03:47:29;15.70;81.10
39023;DHT22;25908;51.984;5.928;2022-08-07T03:49:58;15.70;81.20
39023;DHT22;25908;51.984;5.928;2022-08-07T03:52:27;15.70;81.20
39023;DHT22;25908;51.984;5.928;2022-08-07T03:54:56;15.70;81.40
39023;DHT22;25908;51.984;5.928;2022-08-07T03:57:24;15.70;81.10
39023;DHT22;25908;51.984;5.928;2022-08-07T03:59:51;15.70;81.20
39023;DHT22;25908;51.984;5.928;2022-08-07T04:02:17;15.60;81.60
39023;DHT22;25908;51.984;5.928;2022-08-07T04:04:43;15.60;81.60
39023;DHT22;25908;51.984;5.928;2022-08-07T04:07:08;15.60;81.70
39023;DHT22;25908;51.984;5.928;2022-08-07T04:09:35;15.60;81.80
39023;DHT22;25908;51.984;5.928;2022-08-07T04:12:01;15.60;81.60
39023;DHT22;25908;51.984;5.928;2022-08-07T04:14:27;15.60;81.80
39023;DHT22;25908;51.984;5.928;2022-08-07T04:16:53;15.60;81.70
39023;DHT22;25908;51.984;5.928;2022-08-07T04:19:19;15.60;81.90
39023;DHT22;25908;51.984;5.928;2022-08-07T04:21:45;15.60;82.10
39023;DHT22;25908;51.984;5.928;2022-08-07T04:24:11;15.60;82.30
39023;DHT22;25908;51.984;5.928;2022-08-07T04:26:38;15.60;82.40
39023;DHT22;25908;51.984;5.928;2022-08-07T04:29:06;15.60;82.80
39023;DHT22;25908;51.984;5.928;2022-08-07T04:31:35;15.50;83.00
39023;DHT22;25908;51.984;5.928;2022-08-07T04:34:01;15.50;83.10
39023;DHT22;25908;51.984;5.928;2022-08-07T04:36:27;15.50;83.50
39023;DHT22;25908;51.984;5.928;2022-08-07T04:38:52;15.50;83.80
39023;DHT22;25908;51.984;5.928;2022-08-07T04:41:18;15.40;83.80
39023;DHT22;25908;51.984;5.928;2022-08-07T04:43:44;15.40;84.10
39023;DHT22;25908;51.984;5.928;2022-08-07T04:46:22;15.40;83.90
39023;DHT22;25908;51.984;5.928;2022-08-07T04:48:58;15.40;84.00
39023;DHT22;25908;51.984;5.928;2022-08-07T04:56:56;15.30;84.40
39023;DHT22;25908;51.984;5.928;2022-08-07T04:59:39;15.40;84.20
39023;DHT22;25908;51.984;5.928;2022-08-07T05:02:26;15.40;84.20
39023;DHT22;25908;51.984;5.928;2022-08-07T05:04:59;15.40;84.60
39023;DHT22;25908;51.984;5.928;2022-08-07T05:07:35;15.40;84.50
39023;DHT22;25908;51.984;5.928;2022-08-07T05:12:38;15.50;84.60
39023;DHT22;25908;51.984;5.928;2022-08-07T05:15:08;15.50;84.40
39023;DHT22;25908;51.984;5.928;2022-08-07T05:17:48;15.50;84.50
39023;DHT22;25908;51.984;5.928;2022-08-07T05:20:18;15.50;84.90
39023;DHT22;25908;51.984;5.928;2022-08-07T05:22:50;15.60;84.80
39023;DHT22;25908;51.984;5.928;2022-08-07T05:25:18;15.60;84.70
39023;DHT22;25908;51.984;5.928;2022-08-07T05:27:45;15.60;84.90
39023;DHT22;25908;51.984;5.928;2022-08-07T05:30:12;15.60;85.40
39023;DHT22;25908;51.984;5.928;2022-08-07T05:32:39;15.60;85.30
39023;DHT22;25908;51.984;5.928;2022-08-07T05:35:06;15.60;84.70
39023;DHT22;25908;51.984;5.928;2022-08-07T05:37:33;15.70;84.40
39023;DHT22;25908;51.984;5.928;2022-08-07T05:39:58;15.70;84.20
39023;DHT22;25908;51.984;5.928;2022-08-07T05:42:25;15.70;84.80
39023;DHT22;25908;51.984;5.928;2022-08-07T05:44:51;15.70;84.70
39023;DHT22;25908;51.984;5.928;2022-08-07T05:47:18;15.80;85.00
39023;DHT22;25908;51.984;5.928;2022-08-07T05:49:50;15.80;85.10
39023;DHT22;25908;51.984;5.928;2022-08-07T05:52:19;15.80;85.70
39023;DHT22;25908;51.984;5.928;2022-08-07T05:54:45;15.90;85.90
39023;DHT22;25908;51.984;5.928;2022-08-07T05:57:11;15.90;85.80
39023;DHT22;25908;51.984;5.928;2022-08-07T05:59:39;16.00;85.80
39023;DHT22;25908;51.984;5.928;2022-08-07T06:02:06;16.00;85.30
39023;DHT22;25908;51.984;5.928;2022-08-07T06:04:37;16.10;84.80
39023;DHT22;25908;51.984;5.928;2022-08-07T06:07:04;16.30;84.50
39023;DHT22;25908;51.984;5.928;2022-08-07T06:09:31;16.40;84.60
39023;DHT22;25908;51.984;5.928;2022-08-07T06:11:57;16.60;83.80
39023;DHT22;25908;51.984;5.928;2022-08-07T06:14:23;16.80;82.60
39023;DHT22;25908;51.984;5.928;2022-08-07T06:16:50;17.00;81.50
39023;DHT22;25908;51.984;5.928;2022-08-07T06:19:17;17.30;81.30
39023;DHT22;25908;51.984;5.928;2022-08-07T06:21:43;17.50;80.60
39023;DHT22;25908;51.984;5.928;2022-08-07T06:24:09;17.70;79.80
39023;DHT22;25908;51.984;5.928;2022-08-07T06:26:38;18.00;78.90
39023;DHT22;25908;51.984;5.928;2022-08-07T06:29:04;18.30;78.60
39023;DHT22;25908;51.984;5.928;2022-08-07T06:31:30;18.50;78.20
39023;DHT22;25908;51.984;5.928;2022-08-07T06:33:56;18.70;77.80
39023;DHT22;25908;51.984;5.928;2022-08-07T06:36:21;18.90;76.80
39023;DHT22;25908;51.984;5.928;2022-08-07T06:38:51;19.20;76.60
39023;DHT22;25908;51.984;5.928;2022-08-07T06:41:22;19.40;75.00
39023;DHT22;25908;51.984;5.928;2022-08-07T06:43:49;19.70;74.50
39023;DHT22;25908;51.984;5.928;2022-08-07T06:46:15;19.90;73.70
39023;DHT22;25908;51.984;5.928;2022-08-07T06:48:41;20.20;72.50
39023;DHT22;25908;51.984;5.928;2022-08-07T06:51:09;20.30;72.10
39023;DHT22;25908;51.984;5.928;2022-08-07T06:53:36;20.50;71.80
39023;DHT22;25908;51.984;5.928;2022-08-07T06:56:04;20.80;70.90
39023;DHT22;25908;51.984;5.928;2022-08-07T06:58:33;21.10;70.50
39023;DHT22;25908;51.984;5.928;2022-08-07T07:00:59;21.30;68.80
39023;DHT22;25908;51.984;5.928;2022-08-07T07:03:26;21.50;69.40
39023;DHT22;25908;51.984;5.928;2022-08-07T07:05:52;21.80;67.90
39023;DHT22;25908;51.984;5.928;2022-08-07T07:08:24;22.10;66.00
39023;DHT22;25908;51.984;5.928;2022-08-07T07:10:49;22.30;65.60
39023;DHT22;25908;51.984;5.928;2022-08-07T07:13:20;22.50;64.70
39023;DHT22;25908;51.984;5.928;2022-08-07T07:15:50;22.70;64.70
39023;DHT22;25908;51.984;5.928;2022-08-07T07:18:24;22.90;63.90
39023;DHT22;25908;51.984;5.928;2022-08-07T07:21:09;23.20;62.80
39023;DHT22;25908;51.984;5.928;2022-08-07T07:23:37;23.40;62.90
39023;DHT22;25908;51.984;5.928;2022-08-07T07:26:08;23.70;61.70
39023;DHT22;25908;51.984;5.928;2022-08-07T07:28:38;23.90;61.00
39023;DHT22;25908;51.984;5.928;2022-08-07T07:31:15;24.20;60.10
39023;DHT22;25908;51.984;5.928;2022-08-07T07:33:43;24.30;59.90
39023;DHT22;25908;51.984;5.928;2022-08-07T07:36:10;24.50;57.50
39023;DHT22;25908;51.984;5.928;2022-08-07T07:38:37;24.50;57.50
39023;DHT22;25908;51.984;5.928;2022-08-07T07:41:05;24.70;57.80
39023;DHT22;25908;51.984;5.928;2022-08-07T07:43:32;24.90;58.10
39023;DHT22;25908;51.984;5.928;2022-08-07T07:45:59;25.10;56.80
39023;DHT22;25908;51.984;5.928;2022-08-07T07:48:27;25.20;55.90
39023;DHT22;25908;51.984;5.928;2022-08-07T07:50:54;25.50;56.10
39023;DHT22;25908;51.984;5.928;2022-08-07T07:53:21;25.70;53.90
39023;DHT22;25908;51.984;5.928;2022-08-07T07:55:48;25.70;53.80
39023;DHT22;25908;51.984;5.928;2022-08-07T07:58:14;25.70;54.40
39023;DHT22;25908;51.984;5.928;2022-08-07T08:00:41;25.80;53.60
39023;DHT22;25908;51.984;5.928;2022-08-07T08:03:10;25.90;53.60
39023;DHT22;25908;51.984;5.928;2022-08-07T08:05:39;26.10;52.80
39023;DHT22;25908;51.984;5.928;2022-08-07T08:08:06;26.20;52.40
39023;DHT22;25908;51.984;5.928;2022-08-07T08:10:34;26.30;51.80
39023;DHT22;25908;51.984;5.928;2022-08-07T08:13:00;26.40;52.10
39023;DHT22;25908;51.984;5.928;2022-08-07T08:15:30;26.60;51.90
39023;DHT22;25908;51.984;5.928;2022-08-07T08:17:56;26.80;52.30
39023;DHT22;25908;51.984;5.928;2022-08-07T08:20:23;27.00;51.60
39023;DHT22;25908;51.984;5.928;2022-08-07T08:22:51;27.20;51.40
39023;DHT22;25908;51.984;5.928;2022-08-07T08:25:38;27.30;49.90
39023;DHT22;25908;51.984;5.928;2022-08-07T08:28:24;27.30;49.00
39023;DHT22;25908;51.984;5.928;2022-08-07T08:30:57;27.20;49.60
39023;DHT22;25908;51.984;5.928;2022-08-07T08:33:27;27.30;50.30
39023;DHT22;25908;51.984;5.928;2022-08-07T08:35:54;27.40;48.90
39023;DHT22;25908;51.984;5.928;2022-08-07T08:38:24;27.50;48.20
39023;DHT22;25908;51.984;5.928;2022-08-07T08:41:07;27.50;48.40
39023;DHT22;25908;51.984;5.928;2022-08-07T08:46:38;27.80;47.80
39023;DHT22;25908;51.984;5.928;2022-08-07T08:52:17;28.00;48.90
39023;DHT22;25908;51.984;5.928;2022-08-07T08:55:01;28.20;47.70
39023;DHT22;25908;51.984;5.928;2022-08-07T08:57:43;28.30;47.90
39023;DHT22;25908;51.984;5.928;2022-08-07T09:00:11;28.40;45.90
39023;DHT22;25908;51.984;5.928;2022-08-07T09:02:46;28.20;46.40
39023;DHT22;25908;51.984;5.928;2022-08-07T09:11:12;28.00;45.50
39023;DHT22;25908;51.984;5.928;2022-08-07T09:13:51;28.10;46.00
39023;DHT22;25908;51.984;5.928;2022-08-07T09:16:40;28.20;46.00
39023;DHT22;25908;51.984;5.928;2022-08-07T09:19:29;28.40;45.90
39023;DHT22;25908;51.984;5.928;2022-08-07T09:22:31;28.50;44.00
39023;DHT22;25908;51.984;5.928;2022-08-07T09:25:11;28.30;44.90
39023;DHT22;25908;51.984;5.928;2022-08-07T09:30:59;28.30;44.60
39023;DHT22;25908;51.984;5.928;2022-08-07T09:33:40;28.30;45.10
39023;DHT22;25908;51.984;5.928;2022-08-07T09:36:23;28.40;45.00
39023;DHT22;25908;51.984;5.928;2022-08-07T09:39:19;28.50;42.70
39023;DHT22;25908;51.984;5.928;2022-08-07T09:42:04;28.40;42.00
39023;DHT22;25908;51.984;5.928;2022-08-07T09:50:10;28.20;43.00
39023;DHT22;25908;51.984;5.928;2022-08-07T09:52:47;28.30;43.00
39023;DHT22;25908;51.984;5.928;2022-08-07T09:55:15;28.50;42.60
39023;DHT22;25908;51.984;5.928;2022-08-07T09:58:08;28.60;42.40
39023;DHT22;25908;51.984;5.928;2022-08-07T10:01:18;28.90;42.60
39023;DHT22;25908;51.984;5.928;2022-08-07T10:20:44;28.50;42.50
39023;DHT22;25908;51.984;5.928;2022-08-07T10:23:41;28.50;42.70
39023;DHT22;25908;51.984;5.928;2022-08-07T10:43:16;28.80;41.30
39023;DHT22;25908;51.984;5.928;2022-08-07T10:45:48;28.90;41.90
39023;DHT22;25908;51.984;5.928;2022-08-07T10:51:18;29.20;41.40
39023;DHT22;25908;51.984;5.928;2022-08-07T10:57:12;29.50;41.40
39023;DHT22;25908;51.984;5.928;2022-08-07T11:10:59;29.30;40.60
39023;DHT22;25908;51.984;5.928;2022-08-07T11:13:41;29.20;40.50
39023;DHT22;25908;51.984;5.928;2022-08-07T11:16:40;29.30;41.20
39023;DHT22;25908;51.984;5.928;2022-08-07T11:19:23;29.50;41.00
39023;DHT22;25908;51.984;5.928;2022-08-07T11:30:03;29.30;40.40
39023;DHT22;25908;51.984;5.928;2022-08-07T11:33:04;29.30;40.60
39023;DHT22;25908;51.984;5.928;2022-08-07T11:35:40;29.10;40.70
39023;DHT22;25908;51.984;5.928;2022-08-07T11:38:20;28.90;41.20
39023;DHT22;25908;51.984;5.928;2022-08-07T11:41:10;28.60;41.20
39023;DHT22;25908;51.984;5.928;2022-08-07T11:43:42;28.40;41.90
39023;DHT22;25908;51.984;5.928;2022-08-07T11:46:33;28.20;41.40
39023;DHT22;25908;51.984;5.928;2022-08-07T11:57:28;28.00;42.50
39023;DHT22;25908;51.984;5.928;2022-08-07T12:05:53;28.10;41.80
39023;DHT22;25908;51.984;5.928;2022-08-07T12:08:28;28.10;40.50
39023;DHT22;25908;51.984;5.928;2022-08-07T12:11:02;28.00;41.10
39023;DHT22;25908;51.984;5.928;2022-08-07T12:16:19;27.90;41.30
39023;DHT22;25908;51.984;5.928;2022-08-07T12:19:12;28.00;41.80
39023;DHT22;25908;51.984;5.928;2022-08-07T12:24:24;27.80;42.40
39023;DHT22;25908;51.984;5.928;2022-08-07T12:29:55;27.40;42.40
39023;DHT22;25908;51.984;5.928;2022-08-07T12:32:53;27.50;43.80
39023;DHT22;25908;51.984;5.928;2022-08-07T12:35:23;27.60;43.70
39023;DHT22;25908;51.984;5.928;2022-08-07T12:37:51;27.60;42.70
39023;DHT22;25908;51.984;5.928;2022-08-07T12:40:21;27.60;41.90
39023;DHT22;25908;51.984;5.928;2022-08-07T12:42:51;27.60;41.50
39023;DHT22;25908;51.984;5.928;2022-08-07T12:45:25;27.50;42.80
39023;DHT22;25908;51.984;5.928;2022-08-07T12:48:07;27.40;42.90
39023;DHT22;25908;51.984;5.928;2022-08-07T12:50:49;27.50;43.50
39023;DHT22;25908;51.984;5.928;2022-08-07T12:53:52;27.50;42.90
39023;DHT22;25908;51.984;5.928;2022-08-07T12:56:33;27.40;42.80
39023;DHT22;25908;51.984;5.928;2022-08-07T12:59:00;27.40;43.10
39023;DHT22;25908;51.984;5.928;2022-08-07T13:12:55;27.10;41.70
39023;DHT22;25908;51.984;5.928;2022-08-07T13:20:46;26.80;41.90
39023;DHT22;25908;51.984;5.928;2022-08-07T13:23:19;26.80;43.30
39023;DHT22;25908;51.984;5.928;2022-08-07T13:26:00;26.80;42.60
39023;DHT22;25908;51.984;5.928;2022-08-07T13:28:33;26.80;43.80
39023;DHT22;25908;51.984;5.928;2022-08-07T13:31:13;26.90;44.00
39023;DHT22;25908;51.984;5.928;2022-08-07T13:36:48;26.90;44.40
39023;DHT22;25908;51.984;5.928;2022-08-07T13:39:55;27.00;44.50
39023;DHT22;25908;51.984;5.928;2022-08-07T13:42:24;27.10;43.90
39023;DHT22;25908;51.984;5.928;2022-08-07T13:44:51;27.00;44.10
39023;DHT22;25908;51.984;5.928;2022-08-07T13:47:18;27.00;44.50
39023;DHT22;25908;51.984;5.928;2022-08-07T13:49:46;26.90;44.30
39023;DHT22;25908;51.984;5.928;2022-08-07T13:52:13;26.90;44.20
39023;DHT22;25908;51.984;5.928;2022-08-07T13:54:40;26.80;44.60
39023;DHT22;25908;51.984;5.928;2022-08-07T13:57:10;26.80;45.20
39023;DHT22;25908;51.984;5.928;2022-08-07T13:59:48;26.80;45.50
39023;DHT22;25908;51.984;5.928;2022-08-07T14:02:26;26.80;45.30
39023;DHT22;25908;51.984;5.928;2022-08-07T14:04:55;26.80;44.10
39023;DHT22;25908;51.984;5.928;2022-08-07T14:07:25;26.80;44.60
39023;DHT22;25908;51.984;5.928;2022-08-07T14:09:56;26.80;44.70
39023;DHT22;25908;51.984;5.928;2022-08-07T14:15:28;26.70;44.30
39023;DHT22;25908;51.984;5.928;2022-08-07T14:18:01;26.60;43.90
39023;DHT22;25908;51.984;5.928;2022-08-07T14:20:28;26.60;45.10
39023;DHT22;25908;51.984;5.928;2022-08-07T14:25:31;26.70;44.20
39023;DHT22;25908;51.984;5.928;2022-08-07T14:28:03;26.70;43.90
39023;DHT22;25908;51.984;5.928;2022-08-07T14:30:35;26.80;44.00
39023;DHT22;25908;51.984;5.928;2022-08-07T14:33:02;26.80;42.70
39023;DHT22;25908;51.984;5.928;2022-08-07T14:35:32;26.70;43.20
39023;DHT22;25908;51.984;5.928;2022-08-07T14:37:58;26.70;43.20
39023;DHT22;25908;51.984;5.928;2022-08-07T14:40:28;26.80;42.50
39023;DHT22;25908;51.984;5.928;2022-08-07T14:45:24;26.80;42.20
39023;DHT22;25908;51.984;5.928;2022-08-07T14:47:50;26.80;42.60
39023;DHT22;25908;51.984;5.928;2022-08-07T14:50:17;26.80;43.10
39023;DHT22;25908;51.984;5.928;2022-08-07T14:52:45;26.80;43.20
39023;DHT22;25908;51.984;5.928;2022-08-07T14:55:13;26.80;42.80
39023;DHT22;25908;51.984;5.928;2022-08-07T14:57:40;26.80;43.00
39023;DHT22;25908;51.984;5.928;2022-08-07T15:00:07;26.70;43.00
39023;DHT22;25908;51.984;5.928;2022-08-07T15:02:34;26.70;43.10
39023;DHT22;25908;51.984;5.928;2022-08-07T15:05:02;26.70;43.50
39023;DHT22;25908;51.984;5.928;2022-08-07T15:07:32;26.70;44.10
39023;DHT22;25908;51.984;5.928;2022-08-07T15:10:00;26.70;43.70
39023;DHT22;25908;51.984;5.928;2022-08-07T15:12:34;26.60;44.50
39023;DHT22;25908;51.984;5.928;2022-08-07T15:15:05;26.60;44.70
39023;DHT22;25908;51.984;5.928;2022-08-07T15:17:32;26.50;44.70
39023;DHT22;25908;51.984;5.928;2022-08-07T15:20:05;26.50;45.00
39023;DHT22;25908;51.984;5.928;2022-08-07T15:22:43;26.40;45.40
39023;DHT22;25908;51.984;5.928;2022-08-07T15:25:13;26.40;45.80
39023;DHT22;25908;51.984;5.928;2022-08-07T15:27:41;26.30;46.10
39023;DHT22;25908;51.984;5.928;2022-08-07T15:30:09;26.20;46.30
39023;DHT22;25908;51.984;5.928;2022-08-07T15:32:44;26.20;46.50
39023;DHT22;25908;51.984;5.928;2022-08-07T15:35:14;26.10;46.70
39023;DHT22;25908;51.984;5.928;2022-08-07T15:37:41;26.10;46.30
39023;DHT22;25908;51.984;5.928;2022-08-07T15:40:14;26.20;46.60
39023;DHT22;25908;51.984;5.928;2022-08-07T15:45:08;26.20;46.80
39023;DHT22;25908;51.984;5.928;2022-08-07T15:47:37;26.20;47.10
39023;DHT22;25908;51.984;5.928;2022-08-07T15:50:14;26.20;47.30
39023;DHT22;25908;51.984;5.928;2022-08-07T15:52:44;26.20;47.10
39023;DHT22;25908;51.984;5.928;2022-08-07T15:55:15;26.20;46.90
39023;DHT22;25908;51.984;5.928;2022-08-07T15:57:46;26.20;45.90
39023;DHT22;25908;51.984;5.928;2022-08-07T16:00:17;26.10;45.60
39023;DHT22;25908;51.984;5.928;2022-08-07T16:02:44;26.00;45.40
39023;DHT22;25908;51.984;5.928;2022-08-07T16:05:15;26.00;45.50
39023;DHT22;25908;51.984;5.928;2022-08-07T16:07:57;25.90;45.60
39023;DHT22;25908;51.984;5.928;2022-08-07T16:10:27;25.90;46.20
39023;DHT22;25908;51.984;5.928;2022-08-07T16:16:10;25.80;45.50
39023;DHT22;25908;51.984;5.928;2022-08-07T16:24:33;25.60;45.30
39023;DHT22;25908;51.984;5.928;2022-08-07T16:27:27;25.50;45.90
39023;DHT22;25908;51.984;5.928;2022-08-07T16:32:39;25.40;45.30
39023;DHT22;25908;51.984;5.928;2022-08-07T16:38:01;25.40;45.30
39023;DHT22;25908;51.984;5.928;2022-08-07T16:43:38;25.30;44.70
39023;DHT22;25908;51.984;5.928;2022-08-07T16:46:28;25.20;44.00
39023;DHT22;25908;51.984;5.928;2022-08-07T16:49:32;25.10;44.10
39023;DHT22;25908;51.984;5.928;2022-08-07T16:55:05;25.00;44.60
39023;DHT22;25908;51.984;5.928;2022-08-07T16:57:37;24.90;44.50
39023;DHT22;25908;51.984;5.928;2022-08-07T17:00:14;24.90;44.50
39023;DHT22;25908;51.984;5.928;2022-08-07T17:03:00;24.90;44.40
39023;DHT22;25908;51.984;5.928;2022-08-07T17:08:43;24.80;44.90
39023;DHT22;25908;51.984;5.928;2022-08-07T17:11:13;24.80;44.90
39023;DHT22;25908;51.984;5.928;2022-08-07T17:13:43;24.70;44.70
39023;DHT22;25908;51.984;5.928;2022-08-07T17:16:25;24.70;44.80
39023;DHT22;25908;51.984;5.928;2022-08-07T17:19:02;24.60;44.80
39023;DHT22;25908;51.984;5.928;2022-08-07T17:21:41;24.60;44.90
39023;DHT22;25908;51.984;5.928;2022-08-07T17:24:30;24.60;45.00
39023;DHT22;25908;51.984;5.928;2022-08-07T17:27:12;24.50;44.80
39023;DHT22;25908;51.984;5.928;2022-08-07T17:35:14;24.20;45.10
39023;DHT22;25908;51.984;5.928;2022-08-07T17:40:34;24.10;45.70
39023;DHT22;25908;51.984;5.928;2022-08-07T17:43:12;24.10;46.00
39023;DHT22;25908;51.984;5.928;2022-08-07T17:45:56;24.10;46.10
39023;DHT22;25908;51.984;5.928;2022-08-07T17:48:48;24.10;46.60
39023;DHT22;25908;51.984;5.928;2022-08-07T17:51:21;24.10;46.20
39023;DHT22;25908;51.984;5.928;2022-08-07T17:53:56;24.10;46.40
39023;DHT22;25908;51.984;5.928;2022-08-07T17:56:26;24.00;46.60
39023;DHT22;25908;51.984;5.928;2022-08-07T18:01:22;23.90;46.40
39023;DHT22;25908;51.984;5.928;2022-08-07T18:06:46;23.80;47.00
39023;DHT22;25908;51.984;5.928;2022-08-07T18:09:21;23.80;47.40
39023;DHT22;25908;51.984;5.928;2022-08-07T18:12:02;23.80;47.60
39023;DHT22;25908;51.984;5.928;2022-08-07T18:14:45;23.70;47.80
39023;DHT22;25908;51.984;5.928;2022-08-07T18:19:58;23.60;48.10
39023;DHT22;25908;51.984;5.928;2022-08-07T18:22:36;23.60;48.20
39023;DHT22;25908;51.984;5.928;2022-08-07T18:25:04;23.60;48.40
39023;DHT22;25908;51.984;5.928;2022-08-07T18:33:28;23.50;49.10
39023;DHT22;25908;51.984;5.928;2022-08-07T18:41:50;23.40;49.30
39023;DHT22;25908;51.984;5.928;2022-08-07T18:44:50;23.30;49.20
39023;DHT22;25908;51.984;5.928;2022-08-07T18:55:44;23.10;50.80
39023;DHT22;25908;51.984;5.928;2022-08-07T18:58:39;23.10;51.00
39023;DHT22;25908;51.984;5.928;2022-08-07T19:01:10;23.00;51.50
39023;DHT22;25908;51.984;5.928;2022-08-07T19:03:52;23.00;51.90
39023;DHT22;25908;51.984;5.928;2022-08-07T19:06:48;22.90;52.00
39023;DHT22;25908;51.984;5.928;2022-08-07T19:09:20;22.80;52.40
39023;DHT22;25908;51.984;5.928;2022-08-07T19:20:17;22.60;53.60
39023;DHT22;25908;51.984;5.928;2022-08-07T19:23:07;22.60;53.90
39023;DHT22;25908;51.984;5.928;2022-08-07T19:25:39;22.50;54.30
39023;DHT22;25908;51.984;5.928;2022-08-07T19:28:21;22.40;54.30